Time;durP1;ratioP1;P1;durP2;ratioP2;P2;SDS_P1;SDS_P2;PMS_P1;PMS_P2;Temp;Humidity;BMP_temperature;BMP_pressure;BME280_temperature;BME280_humidity;BME280_pressure;Samples;Min_cycle;Max_cycle;Signal;HPM_P1;HPM_P2
2023/03/08 00:01:11;;;;;;;12.25;5.85;;;;;;;8.76;52.18;94982.09;5045969;28;20083;-53
2023/03/08 00:03:39;;;;;;;13.20;6.30;;;;;;;8.74;52.94;94978.81;5046765;28;20099;-53
2023/03/08 00:06:11;;;;;;;14.55;6.07;;;;;;;9.09;52.66;94981.97;5049522;28;20089;-47
2023/03/08 00:08:40;;;;;;;14.07;6.20;;;;;;;8.73;53.82;94990.31;5045677;28;20075;-47
2023/03/08 00:11:10;;;;;;;9.65;5.28;;;;;;;8.67;54.48;94975.25;5043062;28;20103;-52
2023/03/08 00:13:38;;;;;;;10.15;4.88;;;;;;;9.25;53.98;94991.56;5047568;28;20080;-47
2023/03/08 00:16:09;;;;;;;15.60;5.35;;;;;;;9.14;54.93;94994.59;5047462;28;20083;-49
2023/03/08 00:18:37;;;;;;;;;;;;;;;8.62;55.87;94989.88;5049178;28;20065;-50
2023/03/08 00:21:06;;;;;;;12.95;6.85;;;;;;;8.97;55.03;94996.47;5050323;28;19963;-53
2023/03/08 00:23:36;;;;;;;13.73;6.90;;;;;;;8.94;55.32;95002.06;5047768;28;20101;-49
2023/03/08 00:26:05;;;;;;;16.93;9.23;;;;;;;8.63;57.04;95004.63;5046246;28;20080;-53
2023/03/08 00:28:33;;;;;;;16.00;6.60;;;;;;;9.20;54.25;95005.25;5047868;28;20100;-52
2023/03/08 00:31:03;;;;;;;14.32;6.72;;;;;;;9.24;55.00;95003.91;5048270;28;20123;-53
2023/03/08 00:33:32;;;;;;;13.60;6.00;;;;;;;8.48;58.81;95007.94;5045824;28;20095;-51
2023/03/08 00:36:02;;;;;;;15.60;8.23;;;;;;;8.47;58.18;95005.50;5048456;28;20080;-49
2023/03/08 00:38:31;;;;;;;12.43;6.43;;;;;;;8.90;56.63;95003.41;5045183;28;20091;-53
2023/03/08 00:41:01;;;;;;;20.17;8.60;;;;;;;8.80;58.36;95008.84;5042181;28;20056;-50
2023/03/08 00:43:29;;;;;;;14.50;6.67;;;;;;;8.65;58.73;95014.00;5046798;28;20513;-53
2023/03/08 00:45:58;;;;;;;17.45;7.93;;;;;;;8.99;58.05;95000.56;5048961;28;20503;-53
2023/03/08 00:48:27;;;;;;;11.55;5.30;;;;;;;9.11;57.18;94992.28;5047155;28;20088;-51
2023/03/08 00:50:55;;;;;;;10.93;5.47;;;;;;;8.65;58.73;94994.78;5046276;28;20084;-49
2023/03/08 00:53:23;;;;;;;20.27;8.38;;;;;;;8.89;56.42;94999.13;5046201;28;20544;-53
2023/03/08 00:55:53;;;;;;;15.82;7.65;;;;;;;9.13;55.93;94999.03;5046493;28;20077;-53
2023/03/08 00:58:23;;;;;;;13.07;7.15;;;;;;;8.71;57.17;95004.63;5042817;28;20080;-51
2023/03/08 01:00:52;;;;;;;15.07;7.18;;;;;;;8.88;55.92;95000.09;5045549;28;20118;-50
2023/03/08 01:03:21;;;;;;;22.38;5.50;;;;;;;8.15;58.00;95006.31;5045924;28;20451;-50
2023/03/08 01:05:52;;;;;;;11.15;5.18;;;;;;;8.52;55.73;95006.63;5045943;28;20092;-51
2023/03/08 01:08:20;;;;;;;;;;;;;;;8.54;56.64;95009.91;5044284;28;20083;-52
2023/03/08 01:10:49;;;;;;;13.48;4.32;;;;;;;8.49;55.91;95000.88;5044235;28;19975;-50
2023/03/08 01:13:18;;;;;;;7.25;3.65;;;;;;;8.38;55.95;94999.44;5046088;28;20089;-50
2023/03/08 01:15:48;;;;;;;8.88;4.50;;;;;;;8.83;55.21;95005.88;5046977;28;20095;-52
2023/03/08 01:18:16;;;;;;;15.38;4.88;;;;;;;8.47;55.26;94997.63;5046073;28;20122;-50
2023/03/08 01:20:45;;;;;;;10.00;5.35;;;;;;;8.59;55.26;94995.44;5044956;28;20093;-50
2023/03/08 01:23:13;;;;;;;14.20;5.68;;;;;;;8.91;54.74;94990.09;5046630;28;20068;-47
2023/03/08 01:25:42;;;;;;;9.18;4.38;;;;;;;8.86;53.90;94989.78;5046600;28;20483;-50
2023/03/08 01:28:10;;;;;;;14.70;6.35;;;;;;;8.59;54.86;94991.00;5048684;28;20080;-51
2023/03/08 01:30:38;;;;;;;13.60;6.40;;;;;;;9.11;52.85;94989.66;5046938;28;20076;-47
2023/03/08 01:33:08;;;;;;;13.45;6.68;;;;;;;9.11;52.85;94994.94;5047041;28;20065;-50
2023/03/08 01:35:37;;;;;;;15.07;7.03;;;;;;;9.06;53.85;94986.75;5044730;28;20128;-53
2023/03/08 01:38:06;;;;;;;13.77;7.15;;;;;;;8.86;54.16;94992.41;5042037;28;20072;-50
2023/03/08 01:40:34;;;;;;;9.85;4.63;;;;;;;8.56;55.01;94986.91;5045097;28;20065;-49
2023/03/08 01:43:14;;;;;;;16.17;7.43;;;;;;;8.60;54.22;94986.56;5045289;28;20076;-51
2023/03/08 01:46:09;;;;;;;16.58;7.75;;;;;;;8.90;53.40;94974.47;5045490;28;20089;-55
2023/03/08 01:48:42;;;;;;;17.65;8.20;;;;;;;8.67;54.74;94975.25;5040753;28;20100;-48
2023/03/08 01:51:13;;;;;;;14.55;7.03;;;;;;;8.64;55.42;94970.31;5048248;28;20073;-50
2023/03/08 01:53:42;;;;;;;14.85;7.53;;;;;;;8.48;55.36;94975.63;5044460;28;20080;-51
2023/03/08 01:56:14;;;;;;;15.65;8.45;;;;;;;7.96;57.35;94976.00;5046847;28;20092;-51
2023/03/08 01:58:44;;;;;;;14.32;7.30;;;;;;;8.52;56.52;94966.41;5046002;28;20107;-50
2023/03/08 02:01:12;;;;;;;18.52;8.27;;;;;;;8.02;57.75;94964.84;5044337;28;20083;-50
2023/03/08 02:03:42;;;;;;;13.88;7.68;;;;;;;8.01;58.07;94963.19;5045944;28;20076;-50
2023/03/08 02:06:10;;;;;;;18.43;8.57;;;;;;;8.03;58.22;94961.22;5043965;28;20088;-52
2023/03/08 02:08:39;;;;;;;15.77;8.85;;;;;;;8.14;57.92;94960.06;5047160;28;20168;-51
2023/03/08 02:11:07;;;;;;;17.58;8.55;;;;;;;8.05;57.98;94959.22;5045615;28;20095;-48
2023/03/08 02:13:35;;;;;;;18.80;7.28;;;;;;;8.08;57.27;94958.91;5044022;28;20081;-51
2023/03/08 02:16:05;;;;;;;13.15;6.85;;;;;;;8.38;56.38;94953.97;5045853;28;20071;-53
2023/03/08 02:18:33;;;;;;;14.00;6.90;;;;;;;8.60;56.21;94955.03;5046540;28;20103;-47
2023/03/08 02:21:03;;;;;;;16.52;7.75;;;;;;;8.11;57.30;94948.06;5046739;28;20076;-54
2023/03/08 02:23:33;;;;;;;15.70;7.80;;;;;;;8.23;56.64;94945.94;5044947;28;20088;-52
2023/03/08 02:26:03;;;;;;;15.47;7.20;;;;;;;8.14;57.90;94946.94;5044992;28;20080;-49
2023/03/08 02:28:32;;;;;;;14.38;7.80;;;;;;;8.06;57.69;94947.78;5055910;28;20529;-51
2023/03/08 02:31:00;;;;;;;14.68;6.90;;;;;;;7.99;58.83;94946.78;5044082;28;20077;-47
2023/03/08 02:33:29;;;;;;;16.98;6.75;;;;;;;7.97;58.28;94944.31;5045088;28;20553;-52
2023/03/08 02:35:57;;;;;;;14.90;7.75;;;;;;;8.02;57.94;94949.09;5045450;28;20100;-55
2023/03/08 02:38:26;;;;;;;16.52;6.93;;;;;;;7.88;58.26;94950.59;5046362;28;20128;-50
2023/03/08 02:40:55;;;;;;;14.55;6.97;;;;;;;8.37;57.45;94944.44;5043956;28;20080;-49
2023/03/08 02:43:24;;;;;;;14.23;7.20;;;;;;;8.32;57.57;94945.72;5046185;28;20071;-51
2023/03/08 02:45:52;;;;;;;14.73;7.13;;;;;;;8.01;57.85;94940.38;5044500;28;20088;-52
2023/03/08 02:48:20;;;;;;;16.48;7.38;;;;;;;8.21;58.12;94934.78;5044186;28;20089;-51
2023/03/08 02:50:49;;;;;;;13.55;7.18;;;;;;;8.01;57.01;94929.06;5045832;28;21500;-51
2023/03/08 02:53:17;;;;;;;14.93;7.82;;;;;;;7.51;59.91;94932.72;5046786;28;20085;-51
2023/03/08 02:55:45;;;;;;;14.70;7.47;;;;;;;7.50;60.93;94929.28;5043558;28;20534;-53
2023/03/08 02:58:15;;;;;;;14.00;7.38;;;;;;;7.87;60.13;94937.59;5044708;28;20088;-52
2023/03/08 03:00:44;;;;;;;12.93;6.65;;;;;;;8.08;58.45;94935.28;5043512;28;20569;-49
2023/03/08 03:03:12;;;;;;;15.68;6.47;;;;;;;8.47;56.72;94939.84;5046032;28;20084;-50
2023/03/08 03:05:42;;;;;;;13.27;6.07;;;;;;;7.70;58.26;94945.47;5043061;28;20076;-50
2023/03/08 03:08:11;;;;;;;14.45;6.63;;;;;;;8.08;56.12;94935.28;5045874;28;20549;-47
2023/03/08 03:10:40;;;;;;;11.93;6.15;;;;;;;8.18;57.61;94930.66;5049290;28;20662;-50
2023/03/08 03:13:09;;;;;;;12.32;5.10;;;;;;;8.27;56.97;94940.16;5043950;28;20096;-51
2023/03/08 03:15:39;;;;;;;13.30;6.65;;;;;;;7.98;56.67;94929.38;5040411;28;20085;-52
2023/03/08 03:18:07;;;;;;;11.60;5.65;;;;;;;8.48;55.91;94930.97;5040763;28;20100;-50
2023/03/08 03:20:36;;;;;;;16.80;6.40;;;;;;;7.96;56.96;94936.63;5040242;28;20076;-50
2023/03/08 03:23:05;;;;;;;19.58;6.80;;;;;;;8.31;55.81;94936.22;5041820;28;20060;-48
2023/03/08 03:25:36;;;;;;;16.55;7.47;;;;;;;7.96;57.71;94940.06;5040162;28;20081;-49
2023/03/08 03:28:05;;;;;;;14.05;6.45;;;;;;;8.22;57.74;94929.34;5040658;28;20089;-50
2023/03/08 03:30:33;;;;;;;12.98;4.75;;;;;;;7.67;59.30;94927.44;5038496;28;20080;-55
2023/03/08 03:33:03;;;;;;;18.00;7.82;;;;;;;7.90;58.72;94930.22;5042936;28;20091;-46
2023/03/08 03:35:31;;;;;;;15.80;8.10;;;;;;;7.81;59.57;94924.19;5045165;28;20450;-49
2023/03/08 03:37:59;;;;;;;19.00;7.10;;;;;;;7.96;59.18;94918.25;5043380;28;20084;-53
2023/03/08 03:40:28;;;;;;;16.63;7.80;;;;;;;7.76;59.46;94923.84;5036943;28;20080;-51
2023/03/08 03:42:56;;;;;;;16.45;7.43;;;;;;;8.03;59.63;94920.03;5043332;28;20076;-47
2023/03/08 03:45:24;;;;;;;17.48;7.63;;;;;;;7.72;61.52;94921.72;5041419;28;20535;-51
2023/03/08 03:47:52;;;;;;;15.77;6.90;;;;;;;7.58;60.49;94923.19;5045655;28;20085;-51
2023/03/08 03:50:22;;;;;;;13.65;6.47;;;;;;;7.88;61.31;94921.72;5041666;28;20139;-56
2023/03/08 03:52:50;;;;;;;17.35;7.60;;;;;;;7.89;59.95;94922.53;5044247;28;20092;-49
2023/03/08 03:55:18;;;;;;;17.27;8.50;;;;;;;7.90;59.50;94927.59;5044109;28;20086;-54
2023/03/08 03:57:47;;;;;;;16.67;7.50;;;;;;;7.84;59.25;94923.84;5043962;28;20081;-51
2023/03/08 04:00:16;;;;;;;16.73;7.85;;;;;;;7.92;59.55;94924.81;5043417;28;20083;-51
2023/03/08 04:02:44;;;;;;;16.67;7.28;;;;;;;7.92;58.86;94928.25;5044618;28;20080;-48
2023/03/08 04:05:13;;;;;;;17.95;7.55;;;;;;;8.77;55.88;94925.09;5044268;28;20087;-51
2023/03/08 04:07:42;;;;;;;14.63;6.90;;;;;;;8.63;54.72;94924.00;5044488;28;20483;-50
2023/03/08 04:10:11;;;;;;;17.08;7.50;;;;;;;8.39;56.80;94919.66;5044894;28;20570;-47
2023/03/08 04:12:39;;;;;;;13.85;6.03;;;;;;;8.38;56.64;94920.63;5043317;28;20107;-50
2023/03/08 04:15:08;;;;;;;16.30;7.38;;;;;;;8.16;56.96;94918.72;5040158;28;20085;-50
2023/03/08 04:17:37;;;;;;;18.77;7.05;;;;;;;8.66;55.61;94917.59;5043521;28;20091;-50
2023/03/08 04:20:06;;;;;;;17.88;7.22;;;;;;;8.28;55.26;94917.34;5043994;28;20092;-50
2023/03/08 04:22:35;;;;;;;15.27;6.85;;;;;;;8.38;55.66;94909.31;5043160;28;20085;-53
2023/03/08 04:25:05;;;;;;;17.98;8.02;;;;;;;8.12;56.56;94906.88;5040883;28;20092;-50
2023/03/08 04:27:33;;;;;;;16.70;7.72;;;;;;;8.11;55.93;94902.63;5043469;28;20151;-48
2023/03/08 04:30:02;;;;;;;20.48;7.57;;;;;;;8.30;55.66;94897.81;5045171;28;20123;-49
2023/03/08 04:32:31;;;;;;;19.63;7.97;;;;;;;8.51;55.63;94885.97;5042860;28;20095;-50
2023/03/08 04:34:59;;;;;;;16.17;6.13;;;;;;;8.36;56.61;94887.63;5040422;28;20077;-51
2023/03/08 04:37:27;;;;;;;13.98;6.90;;;;;;;8.09;56.59;94887.88;5039487;28;20141;-50
2023/03/08 04:39:56;;;;;;;18.17;8.77;;;;;;;8.22;55.98;94887.31;5044614;28;20088;-52
2023/03/08 04:42:25;;;;;;;15.35;7.15;;;;;;;8.81;55.04;94881.72;5042518;28;20087;-47
2023/03/08 04:44:54;;;;;;;15.38;7.78;;;;;;;8.89;54.49;94875.59;5043941;28;20089;-52
2023/03/08 04:47:22;;;;;;;16.15;8.35;;;;;;;8.28;55.49;94880.59;5044671;28;20088;-52
2023/03/08 04:49:50;;;;;;;14.68;7.15;;;;;;;8.41;56.88;94874.84;5047300;28;20088;-50
2023/03/08 04:52:19;;;;;;;16.95;8.05;;;;;;;8.25;58.25;94867.78;5042546;28;20083;-50
2023/03/08 04:54:47;;;;;;;16.80;7.97;;;;;;;8.17;57.59;94858.16;5045878;28;20088;-50
2023/03/08 04:57:15;;;;;;;20.00;8.30;;;;;;;7.92;60.31;94857.41;5042543;28;20076;-54
2023/03/08 04:59:45;;;;;;;19.55;8.13;;;;;;;8.41;58.36;94851.19;5044089;28;20091;-50
2023/03/08 05:02:13;;;;;;;17.55;7.95;;;;;;;8.10;59.85;94854.56;5044470;28;20088;-47
2023/03/08 05:04:42;;;;;;;16.75;9.15;;;;;;;8.48;57.67;94844.28;5042774;28;20139;-53
2023/03/08 05:07:10;;;;;;;16.45;8.88;;;;;;;8.20;59.26;94841.25;5049607;28;20092;-51
2023/03/08 05:09:38;;;;;;;17.20;8.60;;;;;;;8.61;58.55;94826.16;5051495;28;20148;-52
2023/03/08 05:12:07;;;;;;;16.80;8.18;;;;;;;9.00;56.08;94815.53;5050564;28;20094;-53
2023/03/08 05:14:35;;;;;;;19.00;9.23;;;;;;;8.89;55.40;94812.50;5050529;28;20086;-50
2023/03/08 05:17:05;;;;;;;21.13;8.60;;;;;;;9.51;53.55;94809.72;5050467;28;20088;-52
2023/03/08 05:19:33;;;;;;;15.50;8.07;;;;;;;9.07;54.45;94812.22;5050315;28;20080;-52
2023/03/08 05:22:02;;;;;;;18.33;7.38;;;;;;;9.01;54.85;94819.78;5050767;28;20135;-51
2023/03/08 05:24:30;;;;;;;20.27;8.70;;;;;;;9.16;53.88;94819.88;5048855;28;20081;-48
2023/03/08 05:26:59;;;;;;;22.83;8.10;;;;;;;9.67;52.46;94806.09;5050653;28;20088;-54
2023/03/08 05:29:27;;;;;;;19.30;9.05;;;;;;;10.06;51.35;94797.16;5050708;28;20080;-46
2023/03/08 05:31:57;;;;;;;15.57;7.00;;;;;;;10.43;49.32;94796.25;5050147;28;20080;-48
2023/03/08 05:34:27;;;;;;;17.80;8.18;;;;;;;10.36;49.25;94795.34;5050016;28;20081;-50
2023/03/08 05:36:55;;;;;;;17.08;7.97;;;;;;;10.28;49.37;94803.31;5049104;28;20084;-51
2023/03/08 05:39:23;;;;;;;19.75;8.13;;;;;;;10.64;48.32;94808.63;5050148;28;20081;-52
2023/03/08 05:41:52;;;;;;;18.73;7.78;;;;;;;10.46;49.35;94801.13;5053141;28;20095;-52
2023/03/08 05:44:20;;;;;;;15.82;7.75;;;;;;;10.53;48.64;94783.59;5049681;28;20470;-51
2023/03/08 05:46:50;;;;;;;16.50;7.40;;;;;;;10.43;48.88;94780.44;5050335;28;20576;-53
2023/03/08 05:49:18;;;;;;;13.75;7.95;;;;;;;10.23;50.02;94780.16;5050199;28;20085;-52
2023/03/08 05:51:48;;;;;;;16.25;8.20;;;;;;;10.46;49.62;94772.16;5049784;28;20080;-51
2023/03/08 05:54:16;;;;;;;17.95;8.40;;;;;;;10.52;49.44;94762.66;5049022;28;20103;-50
2023/03/08 05:56:44;;;;;;;16.58;7.35;;;;;;;10.44;50.09;94760.97;5049178;28;20097;-50
2023/03/08 05:59:13;;;;;;;19.13;8.52;;;;;;;10.42;50.16;94768.22;5049950;28;20091;-52
2023/03/08 06:01:41;;;;;;;16.00;7.80;;;;;;;10.47;50.77;94771.16;5049181;28;20458;-53
2023/03/08 06:04:09;;;;;;;17.27;8.20;;;;;;;10.10;51.29;94780.78;5049461;28;20151;-50
2023/03/08 06:06:37;;;;;;;17.65;9.55;;;;;;;10.07;51.36;94782.97;5049568;28;20088;-47
2023/03/08 06:09:07;;;;;;;19.35;8.68;;;;;;;10.10;51.88;94780.78;5049811;28;20084;-49
2023/03/08 06:11:35;;;;;;;19.10;8.03;;;;;;;10.11;52.16;94784.25;5049526;28;20556;-51
2023/03/08 06:14:04;;;;;;;21.25;8.65;;;;;;;10.34;51.65;94792.06;5049190;28;20080;-50
2023/03/08 06:16:32;;;;;;;20.40;8.55;;;;;;;10.51;51.82;94790.03;5049327;28;20076;-52
2023/03/08 06:19:01;;;;;;;16.50;8.48;;;;;;;10.55;51.49;94792.09;5049061;28;20089;-52
2023/03/08 06:21:29;;;;;;;18.23;8.73;;;;;;;10.30;51.65;94788.16;5049258;28;20080;-50
2023/03/08 06:23:58;;;;;;;17.58;8.65;;;;;;;10.64;51.54;94783.09;5049158;28;20474;-50
2023/03/08 06:26:27;;;;;;;19.77;8.50;;;;;;;10.81;50.90;94783.69;5049562;28;20091;-49
2023/03/08 06:28:55;;;;;;;19.93;8.40;;;;;;;11.21;49.64;94778.75;5049089;28;20600;-48
2023/03/08 06:31:24;;;;;;;18.52;8.57;;;;;;;11.49;48.98;94784.06;5048624;28;20083;-50
2023/03/08 06:33:52;;;;;;;19.63;8.73;;;;;;;11.39;49.21;94789.69;5048620;28;20096;-54
2023/03/08 06:36:21;;;;;;;22.85;8.43;;;;;;;11.37;49.16;94789.06;5048738;28;20072;-50
2023/03/08 06:38:49;;;;;;;18.60;8.55;;;;;;;11.75;48.59;94780.00;5049133;28;20080;-50
2023/03/08 06:41:20;;;;;;;18.98;9.38;;;;;;;11.66;48.33;94784.59;5048865;28;20094;-53
2023/03/08 06:43:49;;;;;;;18.88;9.15;;;;;;;12.05;47.92;94781.44;5048430;28;20077;-52
2023/03/08 06:46:19;;;;;;;18.30;8.75;;;;;;;12.20;47.39;94778.66;5048259;28;21509;-55
2023/03/08 06:48:48;;;;;;;18.35;9.10;;;;;;;11.93;48.69;94779.53;5048473;28;20081;-55
2023/03/08 06:51:16;;;;;;;17.80;9.10;;;;;;;12.02;47.97;94784.47;5048595;28;20080;-51
2023/03/08 06:53:45;;;;;;;18.63;9.68;;;;;;;12.10;47.55;94786.13;5043438;28;20088;-51
2023/03/08 06:56:15;;;;;;;18.17;9.18;;;;;;;11.58;49.46;94785.56;5047030;28;20508;-49
2023/03/08 06:58:43;;;;;;;19.35;9.30;;;;;;;11.14;50.62;94796.34;5049327;28;20099;-52
2023/03/08 07:01:13;;;;;;;20.90;9.43;;;;;;;11.76;49.67;94793.00;5048175;28;20076;-52
2023/03/08 07:03:44;;;;;;;16.80;9.02;;;;;;;11.85;49.71;94797.16;5043407;28;20084;-53
2023/03/08 07:06:12;;;;;;;19.52;10.48;;;;;;;11.60;49.83;94795.94;5048533;28;20085;-49
2023/03/08 07:08:41;;;;;;;19.85;9.90;;;;;;;11.40;50.73;94796.59;5043852;28;20073;-52
2023/03/08 07:11:09;;;;;;;24.45;12.90;;;;;;;11.46;50.82;94802.09;5048496;28;20092;-49
2023/03/08 07:13:38;;;;;;;25.90;13.38;;;;;;;11.68;50.19;94795.78;5048028;28;20092;-51
2023/03/08 07:16:08;;;;;;;58.88;31.38;;;;;;;11.67;50.61;94801.28;5048112;28;20080;-49
2023/03/08 07:18:38;;;;;;;49.85;25.75;;;;;;;11.85;49.64;94791.88;5048301;28;20091;-54
2023/03/08 07:21:06;;;;;;;24.80;11.47;;;;;;;12.15;49.25;94791.66;5048295;28;20072;-49
2023/03/08 07:23:35;;;;;;;24.58;11.98;;;;;;;11.49;49.99;94805.19;5047855;28;20072;-52
2023/03/08 07:26:05;;;;;;;24.05;11.00;;;;;;;12.03;49.50;94794.03;5047813;28;20080;-52
2023/03/08 07:28:33;;;;;;;25.48;11.27;;;;;;;12.20;49.28;94799.81;5048615;28;20084;-54
2023/03/08 07:31:01;;;;;;;25.70;11.65;;;;;;;12.28;49.15;94807.56;5047517;28;20072;-49
2023/03/08 07:33:29;;;;;;;24.15;11.25;;;;;;;12.45;48.68;94807.25;5048111;28;20077;-52
2023/03/08 07:36:01;;;;;;;22.38;10.80;;;;;;;12.32;49.16;94811.47;5047791;28;20284;-48
2023/03/08 07:38:29;;;;;;;22.67;10.85;;;;;;;12.43;49.35;94798.72;5045865;28;20087;-55
2023/03/08 07:40:58;;;;;;;18.67;10.48;;;;;;;12.61;48.66;94791.03;5048279;28;20083;-49
2023/03/08 07:43:28;;;;;;;22.17;11.05;;;;;;;12.45;49.28;94800.13;5047356;28;20530;-48
2023/03/08 07:45:59;;;;;;;19.53;10.70;;;;;;;11.83;50.15;94804.41;5047676;28;20076;-53
2023/03/08 07:48:28;;;;;;;23.38;11.57;;;;;;;12.26;50.02;94795.56;5046166;28;20085;-55
2023/03/08 07:51:02;;;;;;;21.73;10.40;;;;;;;12.30;48.69;94796.81;5048195;28;20076;-52
2023/03/08 07:53:31;;;;;;;24.77;10.88;;;;;;;12.14;50.19;94795.28;5047166;28;20076;-51
2023/03/08 07:55:59;;;;;;;22.73;11.05;;;;;;;12.06;51.80;94788.34;5047998;28;20065;-52
2023/03/08 07:58:28;;;;;;;21.15;10.82;;;;;;;12.62;50.17;94779.44;5047919;28;20080;-52
2023/03/08 08:00:56;;;;;;;18.98;9.88;;;;;;;13.14;48.45;94777.13;5047796;28;20080;-50
2023/03/08 08:03:25;;;;;;;22.63;10.50;;;;;;;13.17;48.45;94774.06;5047467;28;20710;-52
2023/03/08 08:05:53;;;;;;;18.10;10.35;;;;;;;13.63;47.39;94765.38;5048028;28;20077;-53
2023/03/08 08:08:23;;;;;;;24.10;11.32;;;;;;;13.37;47.52;94759.03;5047362;28;20467;-47
2023/03/08 08:10:51;;;;;;;21.98;11.60;;;;;;;11.49;51.52;94751.59;5047135;28;20463;-53
2023/03/08 08:13:19;;;;;;;21.23;11.35;;;;;;;11.39;54.20;94744.84;5045980;28;20635;-52
2023/03/08 08:15:52;;;;;;;23.80;11.15;;;;;;;11.07;56.50;94753.28;5047905;28;20530;-53
2023/03/08 08:18:21;;;;;;;19.60;10.25;;;;;;;11.64;56.12;94741.75;5047580;28;20088;-51
2023/03/08 08:20:49;;;;;;;22.48;11.48;;;;;;;11.75;56.46;94735.94;5047615;28;20085;-53
2023/03/08 08:23:17;;;;;;;19.00;10.90;;;;;;;12.29;52.87;94727.28;5048226;28;20091;-52
2023/03/08 08:25:49;;;;;;;20.45;11.63;;;;;;;11.92;53.25;94722.44;5051118;28;20517;-53
2023/03/08 08:28:17;;;;;;;19.80;11.43;;;;;;;12.39;51.73;94704.94;5050940;28;20478;-54
2023/03/08 08:30:55;;;;;;;19.48;9.82;;;;;;;11.92;54.96;94707.41;5051623;28;20080;-49
2023/03/08 08:33:23;;;;;;;18.10;11.48;;;;;;;11.66;54.44;94702.75;5051338;28;20477;-53
2023/03/08 08:35:52;;;;;;;26.60;11.18;;;;;;;11.89;54.64;94707.78;5051454;28;20097;-54
2023/03/08 08:38:20;;;;;;;17.92;9.50;;;;;;;12.46;52.29;94692.56;5050868;28;20576;-55
2023/03/08 08:40:50;;;;;;;19.73;11.32;;;;;;;11.76;52.40;94682.09;5051578;28;20465;-52
2023/03/08 08:43:18;;;;;;;19.75;11.23;;;;;;;12.19;52.68;94673.19;5053975;28;20085;-52
2023/03/08 08:45:49;;;;;;;22.15;12.30;;;;;;;11.25;54.48;94684.22;5050799;28;20621;-51
2023/03/08 08:48:17;;;;;;;18.35;10.35;;;;;;;11.51;53.07;94673.03;5050886;28;20080;-53
2023/03/08 08:50:45;;;;;;;20.50;10.65;;;;;;;11.88;52.56;94666.56;5051410;28;20088;-54
2023/03/08 08:53:14;;;;;;;22.95;10.90;;;;;;;11.51;53.56;94668.56;5050868;28;20080;-47
2023/03/08 08:55:42;;;;;;;18.45;9.80;;;;;;;11.45;53.05;94663.25;5051364;28;20526;-50
2023/03/08 08:58:14;;;;;;;18.05;10.02;;;;;;;11.92;51.38;94651.94;5051531;28;20115;-51
2023/03/08 09:00:43;;;;;;;16.67;9.63;;;;;;;12.14;51.32;94642.03;5050856;28;20107;-51
2023/03/08 09:03:11;;;;;;;19.15;9.85;;;;;;;12.61;49.91;94635.03;5050425;28;20478;-53
2023/03/08 09:05:41;;;;;;;17.92;10.00;;;;;;;12.42;49.39;94609.38;5050608;28;20080;-53
2023/03/08 09:08:10;;;;;;;15.80;9.57;;;;;;;12.03;50.78;94610.94;5050813;28;20081;-47
2023/03/08 09:10:40;;;;;;;18.00;8.82;;;;;;;12.50;49.26;94594.16;5051415;28;20080;-52
2023/03/08 09:13:08;;;;;;;17.13;8.65;;;;;;;13.22;47.51;94584.53;5050910;28;20084;-49
2023/03/08 09:15:38;;;;;;;18.52;9.85;;;;;;;12.24;48.93;94583.53;5050580;28;20605;-51
2023/03/08 09:18:06;;;;;;;17.87;8.80;;;;;;;12.33;48.91;94580.50;5050487;28;20093;-51
2023/03/08 09:20:35;;;;;;;18.98;8.90;;;;;;;12.59;49.29;94586.81;5050465;28;20076;-52
2023/03/08 09:23:03;;;;;;;15.63;8.77;;;;;;;12.63;48.74;94587.22;5051423;28;20087;-50
2023/03/08 09:25:31;;;;;;;16.30;9.38;;;;;;;12.92;47.83;94564.84;5050157;28;20087;-47
2023/03/08 09:27:59;;;;;;;15.43;8.00;;;;;;;12.52;48.72;94563.03;5050660;28;20275;-51
2023/03/08 09:30:29;;;;;;;18.10;8.80;;;;;;;13.16;47.86;94560.72;5050273;28;20080;-46
2023/03/08 09:32:58;;;;;;;17.35;9.32;;;;;;;13.12;48.38;94551.59;5045793;28;20534;-50
2023/03/08 09:35:27;;;;;;;18.30;8.87;;;;;;;13.04;48.32;94561.38;5048447;28;20089;-50
2023/03/08 09:37:55;;;;;;;18.30;9.73;;;;;;;12.58;48.65;94546.34;5050393;28;20079;-50
2023/03/08 09:40:25;;;;;;;19.45;9.65;;;;;;;13.09;47.83;94552.81;5049618;28;20084;-53
2023/03/08 09:42:55;;;;;;;16.40;9.27;;;;;;;13.26;48.15;94558.50;5049904;28;20080;-50
2023/03/08 09:45:24;;;;;;;16.60;9.40;;;;;;;12.32;48.70;94557.75;5049580;28;20088;-52
2023/03/08 09:47:58;;;;;;;18.25;10.45;;;;;;;12.41;49.72;94550.41;5050183;28;20095;-47
2023/03/08 09:50:41;;;;;;;17.58;9.40;;;;;;;13.00;48.94;94543.44;5049752;28;20091;-50
2023/03/08 09:53:16;;;;;;;24.67;12.85;;;;;;;14.46;45.38;94550.78;5049587;28;20085;-49
2023/03/08 09:55:48;;;;;;;43.63;19.98;;;;;;;14.94;44.59;94539.59;5048740;28;20515;-49
2023/03/08 09:58:22;;;;;;;23.10;12.25;;;;;;;12.90;48.32;94540.41;5049613;28;20084;-49
2023/03/08 10:00:51;;;;;;;53.25;22.80;;;;;;;12.78;50.15;94532.31;5045601;28;20558;-52
2023/03/08 10:03:32;;;;;;;73.43;32.20;;;;;;;14.53;46.90;94527.69;5054884;28;20493;-53
2023/03/08 10:06:11;;;;;;;24.40;12.15;;;;;;;14.15;47.99;94533.03;5049793;28;20107;-50
2023/03/08 10:08:46;;;;;;;186.98;72.93;;;;;;;13.85;46.46;94538.91;5052137;28;20076;-47
2023/03/08 10:11:18;;;;;;;126.97;50.35;;;;;;;14.57;44.82;94549.28;5049556;28;20091;-51
2023/03/08 10:13:49;;;;;;;24.80;13.13;;;;;;;14.68;43.57;94557.34;5049542;28;20091;-49
2023/03/08 10:16:21;;;;;;;20.05;11.18;;;;;;;12.97;46.91;94531.47;5049301;28;20092;-50
2023/03/08 10:18:52;;;;;;;21.95;11.07;;;;;;;14.38;44.29;94525.34;5049374;28;20073;-51
2023/03/08 10:21:23;;;;;;;22.47;10.47;;;;;;;14.46;43.94;94524.25;5049348;28;20085;-53
2023/03/08 10:23:58;;;;;;;19.70;9.63;;;;;;;14.56;43.88;94514.00;5049940;28;20579;-52
2023/03/08 10:26:27;;;;;;;19.75;10.38;;;;;;;15.13;43.78;94519.16;5049184;28;20089;-52
2023/03/08 10:28:55;;;;;;;19.02;10.77;;;;;;;15.08;43.11;94524.34;5049092;28;20077;-50
2023/03/08 10:31:26;;;;;;;18.00;9.50;;;;;;;15.18;43.00;94524.63;5049372;28;20084;-51
2023/03/08 10:34:01;;;;;;;;;;;;;;;16.12;41.02;94515.31;5045252;28;20538;-50
2023/03/08 10:36:31;;;;;;;16.20;9.40;;;;;;;15.83;42.52;94529.44;5048995;28;19960;-50
2023/03/08 10:39:05;;;;;;;18.90;10.48;;;;;;;15.67;42.95;94530.84;5049671;28;20467;-49
2023/03/08 10:41:40;;;;;;;20.83;10.20;;;;;;;15.75;42.87;94533.19;5048872;28;20085;-50
2023/03/08 10:44:13;;;;;;;17.55;9.80;;;;;;;15.24;43.17;94538.84;5048739;28;20084;-53
2023/03/08 10:46:47;;;;;;;19.73;9.80;;;;;;;15.65;43.20;94533.69;5048784;28;20083;-54
2023/03/08 10:49:17;;;;;;;19.70;10.40;;;;;;;15.57;42.99;94530.53;5048000;28;20076;-51
2023/03/08 10:51:55;;;;;;;16.95;9.10;;;;;;;14.94;44.87;94540.38;5042880;28;20076;-51
2023/03/08 10:54:23;;;;;;;17.58;9.30;;;;;;;15.17;44.42;94533.63;5046607;28;20557;-52
2023/03/08 10:56:55;;;;;;;19.80;9.60;;;;;;;15.59;43.44;94534.59;5049138;28;20131;-52
2023/03/08 10:59:28;;;;;;;18.23;9.75;;;;;;;15.20;44.60;94551.75;5046630;28;20079;-52
2023/03/08 11:01:59;;;;;;;18.83;9.73;;;;;;;14.89;45.50;94542.88;5049176;28;20091;-48
2023/03/08 11:04:28;;;;;;;16.10;8.77;;;;;;;13.72;48.74;94546.91;5048176;28;20083;-54
2023/03/08 11:06:58;;;;;;;13.95;8.00;;;;;;;13.06;55.56;94556.69;5049164;28;20084;-49
2023/03/08 11:09:28;;;;;;;12.45;7.07;;;;;;;13.21;59.43;94545.88;5048821;28;20081;-52
2023/03/08 11:11:58;;;;;;;15.35;7.88;;;;;;;13.46;57.27;94545.22;5048909;28;20084;-54
2023/03/08 11:14:28;;;;;;;12.77;7.22;;;;;;;13.33;61.04;94539.97;5048212;28;20084;-53
2023/03/08 11:17:13;;;;;;;13.10;7.57;;;;;;;12.23;72.99;94537.81;5048650;28;20159;-49
2023/03/08 11:19:58;;;;;;;12.52;6.68;;;;;;;12.45;70.59;94529.69;5044453;28;20569;-50
2023/03/08 11:22:38;;;;;;;13.32;7.07;;;;;;;13.21;64.62;94529.16;5046999;28;20080;-52
2023/03/08 11:25:19;;;;;;;13.35;7.20;;;;;;;12.73;72.99;94532.09;5050849;28;20080;-50
2023/03/08 11:28:04;;;;;;;13.48;6.78;;;;;;;13.64;69.58;94518.84;5048138;28;20084;-52
2023/03/08 11:30:42;;;;;;;13.40;6.93;;;;;;;13.35;71.45;94508.78;5047196;28;20104;-50
2023/03/08 11:33:33;;;;;;;15.38;7.88;;;;;;;13.97;67.80;94505.44;5047952;28;20088;-50
2023/03/08 11:36:06;;;;;;;16.83;8.98;;;;;;;13.30;70.82;94507.56;5048726;28;20084;-48
2023/03/08 11:38:36;;;;;;;19.17;8.27;;;;;;;13.71;68.70;94506.38;5045647;28;20060;-54
2023/03/08 11:41:13;;;;;;;18.67;9.60;;;;;;;13.50;68.62;94491.63;5047487;28;20057;-51